Tiempo atmosférico en la estación meteorológica de Belmonte, Cuenca (800 m.)



Fecha
DESCASC
Temp. máxima en grados centígrados (hora)
DESCASC
Temp. mínima en grados centígrados (hora)
DESCASC
Temp. media en grados centígrados
DESCASC
Racha de viento máxima en m/sg (hora)
DESCASC
Velocidad máxima media en intervalos de 10 minutos(hora)
DESCASC
Precipitaciones diarias en mm
DESCASC
Precipitaciones de 00:00 a 06:00 en mm
DESCASC
Precipitaciones de 06:00 a 12:00 en mm
DESCASC
Precipitaciones de 12:00 a 18:00 en mm
DESCASC
Precipitaciones de 18:00 a 24:00 en mm
DESCASC
26-03-2020 -- (--) -- (--) -- -- (--) -- (--) -- -- 0 0 --
25-03-2020 -- (--) -- (--) -- -- (--) -- (--) -- 0 -- 0 1.6
24-03-2020 -- (--) -- (--) -- -- (--) -- (--) 0.8 0.8 0 0 0
23-03-2020 -- (--) -- (--) -- -- (--) -- (--) 3.6 1.6 0.6 0.6 0.8
22-03-2020 -- (--) -- (--) -- -- (--) -- (--) 2.8 0 0 1.2 1.6
21-03-2020 -- (--) -- (--) -- 10.28 (06:30) 6.39 (00:10) 7.4 0 0 6.2 1.2
20-03-2020 -- (--) -- (--) -- -- (--) -- (--) 0 0 0 0 0
19-03-2020 -- (--) -- (--) -- -- (--) -- (--) -- -- 0 0 0
18-03-2020 -- (--) -- (--) -- -- (--) -- (--) -- -- -- -- --
17-03-2020 14.5 (15:20) 3 (00:00) 8.8 12.5 (12:50) 7.22 (13:50) -- -- -- -- --
16-03-2020 -- (--) -- (--) -- 10 (04:40) 4.72 (06:10) -- -- -- -- --
15-03-2020 -- (--) -- (--) -- -- (--) -- (--) 0 0 0 0 0
14-03-2020 22.2 (16:10) 8.2 (00:00) 15.2 8.33 (00:40) 5 (00:40) 0 0 0 0 0
13-03-2020 21.4 (16:40) 11.1 (07:50) 16.3 16.11 (02:50) 5.28 (20:40) 0 0 0 0 0
12-03-2020 26.8 (15:50) 10.9 (00:00) 18.8 11.39 (18:50) 3.06 (11:10) 0 0 0 0 0
11-03-2020 27 (16:30) 6.7 (00:00) 16.8 3.89 (21:40) 2.78 (21:40) 0 0 0 0 0
10-03-2020 22.7 (15:30) 3.1 (00:00) 12.9 5.83 (16:30) 3.33 (17:00) 0 0 0 0 0
09-03-2020 16.8 (16:00) 3.1 (00:00) 9.9 9.44 (16:40) 4.72 (15:20) 0 0 0 0 0
08-03-2020 18.3 (15:50) 0.1 (00:00) 9.2 7.5 (17:20) 4.17 (17:20) 0 0 0 0 0
07-03-2020 14.8 (17:10) -0.3 (00:00) 7.3 8.33 (16:50) 4.17 (16:10) 0 0 0 0 0
06-03-2020 11.2 (15:40) 3 (00:00) 7.1 16.39 (14:20) 8.89 (12:50) 0 0 0 0 0
05-03-2020 15.1 (16:20) 6.5 (00:00) 10.8 13.33 (12:30) 6.11 (11:20) 0 0 0 0 0
04-03-2020 15.8 (14:50) 9.9 (00:00) 12.8 9.72 (15:30) 4.17 (15:30) 0 0 0 0 0
03-03-2020 12.7 (17:40) 1.6 (00:00) 7.1 11.67 (15:10) 5.28 (16:00) 0 0 0 0 0
02-03-2020 13.6 (13:20) 3.3 (00:00) 8.5 19.72 (15:30) 8.89 (15:10) 0 0 0 0 0
01-03-2020 14.2 (16:50) 7.8 (00:00) 11 13.61 (17:50) 6.39 (15:40) 0 0 0 0 0
29-02-2020 14.3 (17:20) 4.5 (00:00) 9.4 12.22 (13:40) 6.11 (13:50) 0 0 0 0 0
28-02-2020 19 (14:40) 2.2 (00:00) 10.6 4.17 (15:30) 2.5 (15:30) 0 0 0 0 0

Gráficas

Temp. máximas Temp. mínimas Temp. medias Precipitaciones Rachas de viento máximas Velocidades máximas media en intervalos de 10 minutos

Datos horarios

Fecha y hora oficial Temperatura (ºC) Velocidad del viento (km/h) Dirección del viento Racha (km/h) Dirección de racha Precipitación (mm) Presión (hPa) Tendencia (hPa) Humedad (%)
2020-03-28 23:00:00 -- -- -- -- -- -- -- -- --
2020-03-28 22:00:00 8.4 0 Calma 5 Sudeste 0 -- -- 73
2020-03-28 21:00:00 9.2 2 Este 7 Sudeste 0 -- -- 69
2020-03-28 20:00:00 10.5 3 Sudeste 6 Sur 0 -- -- 64
2020-03-28 19:00:00 12.1 2 Sudeste 11 Sudeste 0 -- -- 54
2020-03-28 18:00:00 12.7 6 Sudeste 13 Sudeste 0 -- -- 51
2020-03-28 17:00:00 12.7 5 Sudeste 17 Sur 0 -- -- 53
2020-03-28 16:00:00 13.3 6 Sudeste 18 Sudeste 0 -- -- 50
2020-03-28 15:00:00 12.9 11 Sur 22 Sur 0 -- -- 50
2020-03-28 14:00:00 12.5 4 Sudoeste 18 Sur 0 -- -- 51
2020-03-28 13:00:00 11.6 6 Este 32 Sudeste 0 -- -- 48
2020-03-28 12:00:00 10.8 5 Sudeste 16 Sudeste 0 -- -- 48
2020-03-28 11:00:00 9.3 10 Sudeste 16 Sudeste 0 -- -- 56
2020-03-28 10:00:00 7.7 6 Sudeste 17 Sudeste 0 -- -- 61
2020-03-28 09:00:00 5.8 4 Este 8 Este 0 -- -- 68
2020-03-28 08:00:00 2.6 2 Nordeste 12 Nordeste 0 -- -- 84
2020-03-28 07:00:00 2 3 Este -- -- -- -- -- 90
2020-03-28 06:00:00 2.9 2 Nordeste 16 Este 0 -- -- 89
2020-03-28 05:00:00 3.7 9 Este 20 Este 0 -- -- 89
2020-03-28 04:00:00 4.2 10 Este 22 Este 0 -- -- 83
2020-03-28 03:00:00 4.4 8 Este 21 Este 0 -- -- 88
2020-03-28 02:00:00 4.3 7 Este 21 Este 0 -- -- 87
2020-03-28 01:00:00 3.7 11 Sudeste 23 Este 0 -- -- 90
2020-03-28 00:00:00 3.9 12 Sudeste 22 Sudeste 0 -- -- 90
2020-03-27 23:00:00 3.7 9 Sudeste -- -- -- -- -- 94
2020-03-27 22:00:00 4 10 Sudeste 29 Este 0.6 -- -- 93
2020-03-27 21:00:00 4.4 11 Este 27 Sudeste 0.6 -- -- 91
2020-03-27 20:00:00 4.7 8 Este 24 Este 1.4 -- -- 91
2020-03-27 19:00:00 4.9 13 Este 31 Este 0.4 -- -- 88
2020-03-27 18:00:00 5.5 13 Este 35 Sudeste 0 -- -- 83
2020-03-27 17:00:00 6 18 Este 39 Este 0 -- -- 80
2020-03-27 16:00:00 6.3 14 Este 34 Este 0 -- -- 80
2020-03-27 15:00:00 5.6 17 Este 32 Este 0 -- -- 84
2020-03-27 14:00:00 5 16 Sudeste 37 Este 0 -- -- 87
2020-03-27 13:00:00 5 16 Este 39 Sudeste 0 -- -- 86
2020-03-27 12:00:00 4.3 17 Este 44 Sudeste 0 -- -- 89
2020-03-27 11:00:00 3.5 16 Este 46 Sudeste 0 -- -- 92
2020-03-27 10:00:00 3.1 19 Este 36 Este 1 -- -- 94
2020-03-27 09:00:00 3.3 19 Este 43 Sudeste 0.6 -- -- 89
2020-03-27 08:00:00 -- 23 Este -- -- 0 -- -- --
2020-03-27 07:00:00 -- -- -- -- -- 0 -- -- --
2020-03-27 06:00:00 4.4 23 Sudeste 42 Este 0 -- -- 86
2020-03-27 05:00:00 4.6 19 Sudeste 39 Sur 0 -- -- 87
2020-03-27 04:00:00 4.7 21 Sudeste 40 Sudeste 0 -- -- 87
2020-03-27 03:00:00 4.9 21 Sudeste -- -- 0 -- -- 84
2020-03-27 02:00:00 -- -- -- -- -- 0 -- -- --
2020-03-27 01:00:00 -- -- -- -- -- 0 -- -- --
2020-03-27 00:00:00 -- -- -- -- -- 0 -- -- --
2020-03-26 23:00:00 -- -- -- -- -- -- -- -- --
2020-03-26 22:00:00 8.4 4 Nordeste 13 Nordeste 0 -- -- 59
2020-03-26 21:00:00 9.1 6 Nordeste 13 Nordeste 0 -- -- 56
2020-03-26 20:00:00 11 5 Nordeste -- -- 0 -- -- 49
2020-03-26 19:00:00 12.8 9 Norte 23 Noroeste 0 -- -- 41
2020-03-26 18:00:00 14.1 9 Norte 27 Noroeste 0 -- -- 32
2020-03-26 17:00:00 14.7 12 Norte 33 Noroeste 0 -- -- 28
2020-03-26 16:00:00 14.5 9 Noroeste 28 Noroeste 0 -- -- 32
2020-03-26 15:00:00 13.9 17 Noroeste 34 Noroeste 0 -- -- 33
2020-03-26 14:00:00 13.7 12 Noroeste 35 Noroeste 0 -- -- 35
2020-03-26 13:00:00 13.5 12 Noroeste 28 Noroeste 0 -- -- 40
2020-03-26 12:00:00 12 9 Norte 26 Noroeste 0 -- -- 44
2020-03-26 11:00:00 10.8 8 Norte 22 Noroeste 0 -- -- 50
2020-03-26 10:00:00 8.2 9 Norte 23 Norte 0 -- -- 69
2020-03-26 09:00:00 4 3 Norte 16 Norte 0 -- -- 99
2020-03-26 08:00:00 3 2 Norte -- -- 0 -- -- 99
2020-03-26 07:00:00 -- -- -- -- -- 0 -- -- --
2020-03-26 06:00:00 -- -- -- -- -- 0 -- -- --
2020-03-26 05:00:00 -- -- -- -- -- -- -- -- --
2020-03-26 04:00:00 -- -- -- -- -- -- -- -- --
2020-03-26 03:00:00 -- -- -- -- -- 0 -- -- --
2020-03-26 02:00:00 5.8 0 Calma 12 Sudeste 0 -- -- 92
2020-03-26 01:00:00 6.2 7 Sudeste 22 Sudeste 0 -- -- 91
2020-03-26 00:00:00 6.6 12 Sudeste 21 Sudeste 0 -- -- 92
2020-03-25 23:00:00 7.5 8 Sudeste 21 Sur 0.8 -- -- 93
2020-03-25 22:00:00 8.2 4 Oeste 26 Sudeste 0.8 -- -- 90
2020-03-25 21:00:00 9 12 Sudeste 25 Sudeste 0 -- -- 82
2020-03-25 20:00:00 12.4 6 Sudeste 12 Sudeste 0 -- -- 61
2020-03-25 19:00:00 14.2 5 Noroeste 15 Oeste 0 -- -- 45
2020-03-25 18:00:00 14.9 8 Noroeste 17 Noroeste 0 -- -- 43
2020-03-25 17:00:00 15.5 8 Oeste 22 Noroeste 0 -- -- 41
2020-03-25 16:00:00 15.5 12 Noroeste 23 Noroeste 0 -- -- 42
2020-03-25 15:00:00 14.7 7 Oeste 14 Oeste 0 -- -- 52
2020-03-25 14:00:00 13.6 3 Noroeste 11 Oeste 0 -- -- 53
2020-03-25 13:00:00 13 4 Norte 12 Sudoeste 0 -- -- 55
2020-03-25 12:00:00 10.8 5 Sur 15 Sur 0 -- -- 64
2020-03-25 11:00:00 9.3 6 Sur 14 Sudeste 0 -- -- 70
2020-03-25 10:00:00 7.3 2 Norte 5 Noroeste 0 -- -- 80
2020-03-25 09:00:00 4.7 0 Calma 5 Sudoeste 0 -- -- 91
2020-03-25 08:00:00 3.4 0 Calma -- -- 0 -- -- 92
2020-03-25 07:00:00 -- -- -- -- -- -- -- -- --
2020-03-25 06:00:00 4.6 2 Nordeste 12 Este 0 -- -- 88
2020-03-25 05:00:00 4.9 7 Este -- -- 0 -- -- 89
2020-03-25 04:00:00 -- -- -- -- -- 0 -- -- --
2020-03-25 03:00:00 -- -- -- -- -- 0 -- -- --
2020-03-25 02:00:00 6.1 12 Sudeste 26 Este 0 -- -- 87
2020-03-25 01:00:00 6.5 9 Sudeste 24 Este 0 -- -- 87
2020-03-25 00:00:00 6.4 13 Sudeste 27 Sudeste 0 -- -- 88
2020-03-24 23:00:00 6.8 15 Sudeste 31 Sudeste 0 -- -- 84
2020-03-24 22:00:00 7.4 15 Sudeste 35 Sudeste 0 -- -- 81
2020-03-24 21:00:00 8.2 22 Sudeste 36 Sudeste 0 -- -- 80
2020-03-24 20:00:00 8.4 15 Sudeste 31 Sudeste 0 -- -- 79
2020-03-24 19:00:00 9.7 15 Sudeste 37 Sudeste 0 -- -- 74
2020-03-24 18:00:00 10.9 16 Sudeste 36 Sudeste 0 -- -- 68
2020-03-24 17:00:00 11.4 19 Sudeste 36 Este 0 -- -- 68
2020-03-24 16:00:00 11.6 21 Sudeste 46 Sudeste 0 -- -- 68
2020-03-24 15:00:00 12 25 Este 47 Este 0 -- -- 65
2020-03-24 14:00:00 11.6 21 Este 45 Este 0 -- -- 70
2020-03-24 13:00:00 11.2 29 Este 51 Este 0 -- -- 70
2020-03-24 12:00:00 11.2 23 Este 48 Este 0 -- -- 73
2020-03-24 11:00:00 10.6 22 Este 42 Este 0 -- -- 78
2020-03-24 10:00:00 9.5 20 Este 51 Este 0 -- -- 81
2020-03-24 09:00:00 9.5 18 Este 35 Este 0 -- -- 84
2020-03-24 08:00:00 8.7 14 Este -- -- 0 -- -- 87
2020-03-24 07:00:00 -- -- -- -- -- 0 -- -- --
2020-03-24 06:00:00 -- -- -- -- -- 0.4 -- -- --
2020-03-24 05:00:00 -- -- -- -- -- 0.4 -- -- --
2020-03-24 04:00:00 -- -- -- -- -- 0 -- -- --
2020-03-24 03:00:00 -- -- -- -- -- 0 -- -- --
2020-03-24 02:00:00 -- -- -- -- -- 0 -- -- --
2020-03-24 01:00:00 -- -- -- -- -- 0 -- -- --
2020-03-24 00:00:00 -- -- -- -- -- 0 -- -- --
2020-03-23 23:00:00 -- 11 Este 42 Este 0 -- -- --
2020-03-23 22:00:00 9.3 8 Este 27 Este 0 -- -- 85
2020-03-23 21:00:00 9.2 11 Este 29 Este 0 -- -- 86
2020-03-23 20:00:00 9.5 13 Este 29 Este 0 -- -- 85
2020-03-23 19:00:00 9.8 14 Este 46 Este 0.8 -- -- 87
2020-03-23 18:00:00 11.6 26 Sudeste 53 Sudeste 0 -- -- 71
2020-03-23 17:00:00 12.8 17 Este 31 Sudeste 0 -- -- 67
2020-03-23 16:00:00 12.3 15 Sudeste 36 Este 0 -- -- 74
2020-03-23 15:00:00 11.3 19 Este 38 Sudeste 0.6 -- -- 81
2020-03-23 14:00:00 13.6 12 Sudeste 29 Sudeste 0 -- -- 66
2020-03-23 13:00:00 13.1 16 Sudeste 31 Sudeste 0 -- -- 74
2020-03-23 12:00:00 12.1 14 Sudeste 30 Sudeste 0 -- -- 75
2020-03-23 11:00:00 10.6 14 Sudeste 29 Este 0 -- -- 82
2020-03-23 10:00:00 9.5 15 Sudeste 33 Sudeste 0 -- -- 90
2020-03-23 09:00:00 8.4 14 Este 26 Sudeste 0 -- -- 93
2020-03-23 08:00:00 7.7 6 Este 23 Sudeste 0.6 -- -- 95
2020-03-23 07:00:00 7.6 6 Este 15 Este 0 -- -- 96
2020-03-23 06:00:00 -- -- -- -- -- 1 -- -- --
2020-03-23 05:00:00 -- -- -- -- -- 0.6 -- -- --
2020-03-23 04:00:00 -- -- -- -- -- 0 -- -- --
2020-03-23 03:00:00 -- -- -- -- -- 0 -- -- --
2020-03-23 02:00:00 7.5 9 Sudeste 23 Este 0 -- -- 94
2020-03-23 01:00:00 7.8 12 Sudeste 24 Este 0 -- -- 94
2020-03-23 00:00:00 8.1 11 Sudeste -- -- 0.4 -- -- 95
2020-03-22 23:00:00 -- 13 Sudeste 21 Este 0.6 -- -- --
2020-03-22 22:00:00 8.2 8 Este 19 Este 0 -- -- 94
2020-03-22 21:00:00 8 10 Este 24 Este 0.2 -- -- 94
2020-03-22 20:00:00 8 15 Sudeste 27 Sudeste 0.4 -- -- 93
2020-03-22 19:00:00 8.9 15 Sudeste 31 Este 0 -- -- 88
2020-03-22 18:00:00 8.7 10 Este 30 Sudeste 0.4 -- -- 90
2020-03-22 17:00:00 8.8 8 Sudeste 24 Sudeste 0.6 -- -- 90
2020-03-22 16:00:00 9.9 10 Sudeste 20 Este 0 -- -- 82
2020-03-22 15:00:00 9.7 9 Sudeste 22 Sudeste 0.2 -- -- 86
2020-03-22 14:00:00 10.7 9 Sudeste 18 Sudeste 0 -- -- 76
2020-03-22 13:00:00 10.1 9 Sur 18 Este 0 -- -- 82
2020-03-22 12:00:00 10.6 9 Sudeste 21 Sudeste 0 -- -- 77
2020-03-22 11:00:00 10.2 13 Sudeste 24 Sudeste 0 -- -- 73
2020-03-22 10:00:00 8.7 8 Este 19 Este 0 -- -- 87
2020-03-22 09:00:00 6.4 5 Este 15 Este 0 -- -- 92
2020-03-22 08:00:00 5 5 Sudeste -- -- 0 -- -- 96
2020-03-22 07:00:00 -- -- -- -- -- 0 -- -- --
2020-03-22 06:00:00 -- -- -- -- -- 0 -- -- --
2020-03-22 05:00:00 -- -- -- -- -- 0 -- -- --
2020-03-22 04:00:00 -- -- -- -- -- 0 -- -- --
2020-03-22 03:00:00 -- -- -- -- -- 0 -- -- --
2020-03-22 02:00:00 5.4 3 Sudeste 19 Este 0 -- -- 96
2020-03-22 01:00:00 5.6 8 Sudeste 19 Sudeste 0 -- -- 95
2020-03-22 00:00:00 -- 3 Sudeste -- -- 0 -- -- --
2020-03-21 23:00:00 -- -- -- -- -- 0 -- -- --
2020-03-21 22:00:00 6.4 10 Este 21 Sudeste 0 -- -- 94
2020-03-21 21:00:00 6.5 7 Este 14 Sudeste 0 -- -- 94
2020-03-21 20:00:00 6.9 5 Este 13 Este 0.4 -- -- 92
2020-03-21 19:00:00 7.3 6 Este 14 Este 0.8 -- -- 90
2020-03-21 18:00:00 8 3 Este 12 Sudeste 0.6 -- -- 87
2020-03-21 17:00:00 8.4 3 Sudeste 6 Sudeste 0.2 -- -- 82
2020-03-21 16:00:00 8.6 3 Oeste 8 Oeste 0 -- -- 80
2020-03-21 15:00:00 8.3 4 Oeste 15 Oeste 0.2 -- -- 86
2020-03-21 14:00:00 8.6 7 Oeste 18 Oeste 0 -- -- 83
2020-03-21 13:00:00 9 6 Sudoeste 17 Sudoeste 5.2 -- -- 75
2020-03-21 12:00:00 7.9 6 Oeste 27 Sudoeste 0 -- -- 82
2020-03-21 11:00:00 8.6 13 Sudoeste 28 Sudoeste 0 -- -- 82
2020-03-21 10:00:00 9.1 18 Sudeste 35 Sudeste 0 -- -- 88
2020-03-21 09:00:00 8.5 18 Sudeste 33 Sudeste 0 -- -- 90
2020-03-21 08:00:00 7.9 16 Sudeste 36 Este 0 -- -- 92
2020-03-21 07:00:00 7.5 21 Sudeste 37 Sudeste 0 -- -- 94
2020-03-21 06:00:00 7.6 20 Sudeste 35 Sudeste 0 -- -- 92
2020-03-21 05:00:00 7.6 19 Este 33 Este 0 -- -- 92
2020-03-21 04:00:00 7.7 17 Este 32 Este 0 -- -- 91
2020-03-21 03:00:00 7.6 17 Sudeste 32 Sudeste 0 -- -- 90
2020-03-21 02:00:00 7.7 16 Sudeste 33 Este 0 -- -- 90
2020-03-21 01:00:00 7.2 18 Sudeste 36 Sudeste 0 -- -- 88
2020-03-21 00:00:00 7.3 24 Sudeste 51 Sudeste 0 -- -- 85
2020-03-20 23:00:00 7.6 22 Sudeste 39 Sudeste 0 -- -- 85
2020-03-20 22:00:00 8.2 24 Este 41 Este 0 -- -- 81
2020-03-20 21:00:00 8.3 22 Este 41 Este 0 -- -- 84
2020-03-20 20:00:00 8.8 23 Este 45 Sudeste 0 -- -- 86
2020-03-20 19:00:00 9.8 23 Sudeste 47 Sudeste 0 -- -- 83
2020-03-20 18:00:00 10.8 24 Sudeste 46 Este 0 -- -- 80
2020-03-20 17:00:00 11.2 27 Sudeste 45 Sudeste 0 -- -- 78
2020-03-20 16:00:00 12 24 Sudeste 45 Sudeste 0 -- -- 74
2020-03-20 15:00:00 12.9 21 Sudeste 44 Sudeste 0 -- -- 68
2020-03-20 14:00:00 11.9 20 Sudeste 39 Este 0 -- -- 71
2020-03-20 13:00:00 12 18 Sudeste 41 Este 0 -- -- 70
2020-03-20 12:00:00 11.3 17 Sudeste 35 Sudeste 0 -- -- 72
2020-03-20 11:00:00 10.2 17 Sudeste 34 Sudeste 0 -- -- 79
2020-03-20 10:00:00 9.4 17 Sudeste 38 Sudeste 0 -- -- 84
2020-03-20 09:00:00 8.4 18 Sudeste 37 Sudeste 0 -- -- 89
2020-03-20 08:00:00 -- -- -- -- -- 0 -- -- --
2020-03-20 07:00:00 -- -- -- -- -- 0 -- -- --
2020-03-20 06:00:00 -- -- -- -- -- 0 -- -- --
2020-03-20 05:00:00 -- -- -- -- -- 0 -- -- --
2020-03-20 04:00:00 -- -- -- -- -- 0 -- -- --
2020-03-20 03:00:00 -- -- -- -- -- 0 -- -- --
2020-03-20 02:00:00 -- -- -- -- -- 0 -- -- --
2020-03-20 01:00:00 -- -- -- -- -- 0 -- -- --
2020-03-20 00:00:00 -- -- -- -- -- 0 -- -- --
2020-03-19 23:00:00 -- 21 Sudeste 40 Este 0 -- -- --
2020-03-19 22:00:00 10 19 Sudeste 37 Este 0 -- -- 84
2020-03-19 21:00:00 10.4 19 Sudeste 37 Este 0 -- -- 81
2020-03-19 20:00:00 10.7 19 Sudeste 36 Sudeste 0 -- -- 79
2020-03-19 19:00:00 11.4 18 Sudeste 33 Sudeste 0 -- -- 74
2020-03-19 18:00:00 12.1 15 Sudeste 37 Sudeste 0 -- -- 73
2020-03-19 17:00:00 12.9 19 Sudeste 38 Este 0 -- -- 69
2020-03-19 16:00:00 13.5 20 Sudeste 39 Sudeste 0 -- -- 65
2020-03-19 15:00:00 14 21 Sudeste 40 Sudeste 0 -- -- 63
2020-03-19 14:00:00 13.6 20 Sudeste 40 Este 0 -- -- 63
2020-03-19 13:00:00 13 20 Sudeste 45 Sudeste 0 -- -- 64
2020-03-19 12:00:00 12.4 18 Sudeste 36 Sudeste 0 -- -- 66
2020-03-19 11:00:00 11.3 18 Sudeste 37 Sudeste 0 -- -- 69
2020-03-19 10:00:00 10.1 15 Sudeste 35 Este 0 -- -- 77
2020-03-19 09:00:00 8.1 11 Sudeste 21 Este 0 -- -- 85
2020-03-19 08:00:00 6.6 9 Este -- -- 0 -- -- 90
2020-03-19 07:00:00 -- 9 Este 23 Sudeste 0 -- -- --
2020-03-19 06:00:00 6.5 12 Este 26 Este 0 -- -- 89
2020-03-19 05:00:00 6.5 13 Este 27 Sudeste 0 -- -- 89
2020-03-19 04:00:00 6.8 16 Este 28 Este 0 -- -- 89
2020-03-19 03:00:00 7.2 11 Este 25 Sudeste 0 -- -- 90
2020-03-19 02:00:00 7.5 11 Este 29 Sudeste 0 -- -- 90
2020-03-19 01:00:00 7.6 15 Este 32 Sudeste 0 -- -- 90
2020-03-19 00:00:00 8.1 20 Sudeste 36 Sudeste 0 -- -- 88
2020-03-18 23:00:00 8.7 12 Sudeste 23 Sudeste 0 -- -- 82
2020-03-18 22:00:00 9.6 12 Sudeste 27 Sudeste 0 -- -- 71
2020-03-18 21:00:00 10.6 12 Sudeste 25 Sudeste 0 -- -- 66
2020-03-18 20:00:00 11.9 10 Sudeste 17 Sudeste 0 -- -- 61
2020-03-18 19:00:00 13.2 10 Sudeste 24 Sudeste 0 -- -- 62
2020-03-18 18:00:00 14.4 13 Sudeste 28 Este 0 -- -- 57
2020-03-18 17:00:00 14.8 12 Sudeste 29 Sudeste 0 -- -- 61
2020-03-18 16:00:00 13.7 15 Sudeste 28 Sudeste 0 -- -- 64
2020-03-18 15:00:00 13.3 19 Sudeste 31 Sudeste 0 -- -- 65
2020-03-18 14:00:00 13.3 12 Sudeste 30 Sudeste 0 -- -- 69
2020-03-18 13:00:00 12.8 15 Sudeste 33 Sudeste 0 -- -- 70
2020-03-18 12:00:00 11.7 13 Sudeste 31 Este 0 -- -- 73
2020-03-18 11:00:00 10.7 10 Sudeste 42 Sudeste 0 -- -- 77
2020-03-18 10:00:00 9.6 16 Sudeste 39 Sudeste 0 -- -- 82
2020-03-18 09:00:00 9 16 Sudeste 43 Sudeste 0 -- -- 84
2020-03-18 08:00:00 8.7 21 Sudeste 48 Este 0 -- -- 83
2020-03-18 07:00:00 8.8 26 Sudeste -- -- -- -- -- 83
2020-03-18 06:00:00 8.7 25 Sudeste 45 Este 0 -- -- 83
2020-03-18 05:00:00 8.4 14 Sudeste 32 Sudeste 0 -- -- 85
2020-03-18 04:00:00 8.8 9 Sudeste 19 Sudeste 0 -- -- 81
2020-03-18 03:00:00 -- 8 Sudeste 24 Sudeste 0 -- -- --
2020-03-18 02:00:00 9.1 7 Sudeste 31 Este 0 -- -- 84
2020-03-18 01:00:00 9.6 12 Este 29 Este 0 -- -- 83
2020-03-18 00:00:00 10 10 Sudeste 26 Sudeste 0 -- -- 84
2020-03-17 23:00:00 10.4 8 Sudeste 19 Este 0 -- -- 83
2020-03-17 22:00:00 10.9 5 Este 29 Este 0 -- -- 83
2020-03-17 21:00:00 11.7 17 Sudeste 36 Este 0 -- -- 81
2020-03-17 20:00:00 12.3 15 Sudeste 31 Este 0 -- -- 82
2020-03-17 19:00:00 12.2 6 Este 23 Nordeste 0 -- -- 80
2020-03-17 18:00:00 12.5 6 Nordeste 26 Este 0 -- -- 76
2020-03-17 17:00:00 12.6 17 Este 45 Sudeste 0 -- -- 77
2020-03-17 16:00:00 13.8 21 Este 41 Este 0 -- -- 72
2020-03-17 15:00:00 14.1 24 Sudeste 43 Este 0 -- -- 71
2020-03-17 14:00:00 13.8 24 Sudeste 42 Este 0 -- -- 70
2020-03-17 13:00:00 13 23 Sudeste 45 Este 0 -- -- 72
2020-03-17 12:00:00 12.2 25 Sudeste 41 Este 0 -- -- 70
2020-03-17 11:00:00 11.3 19 Sudeste 37 Sudeste 0 -- -- 70
2020-03-17 10:00:00 9 14 Este 30 Sudeste 0 -- -- 82
2020-03-17 09:00:00 7.8 7 Este 19 Este 0 -- -- 92
2020-03-17 08:00:00 7.1 6 Sudeste 13 Este 0 -- -- 93
2020-03-17 07:00:00 6.4 4 Sudeste 19 Este 0 -- -- 93
2020-03-17 06:00:00 5.8 10 Este 22 Sudeste 0 -- -- 92
2020-03-17 05:00:00 5.4 12 Este 23 Este 0 -- -- 92
2020-03-17 04:00:00 4.5 4 Este 16 Nordeste 0 -- -- 89
2020-03-17 03:00:00 3.1 3 Este 13 Este -- -- -- 90
2020-03-17 02:00:00 3.1 3 Este 11 Este 0 -- -- 91
2020-03-17 01:00:00 3.3 4 Este 18 Este 0 -- -- 89
2020-03-17 00:00:00 3.7 10 Este 17 Sudeste 0 -- -- 88
2020-03-16 23:00:00 4.2 9 Sudeste 16 Este 0 -- -- 85
2020-03-16 22:00:00 4.9 7 Este 14 Este 0 -- -- 80
2020-03-16 21:00:00 5.1 6 Este 19 Sudeste 0 -- -- 80
2020-03-16 20:00:00 6.1 4 Sudeste 8 Sudeste 0 -- -- 76
2020-03-16 19:00:00 6.2 4 Sudeste 17 Sur 0 -- -- 76
2020-03-16 18:00:00 7.2 9 Sur 19 Sur 0 -- -- 66
2020-03-16 17:00:00 7.7 8 Sur 18 Sudeste 0 -- -- 64
2020-03-16 16:00:00 7.8 9 Sudeste 19 Sudoeste 0 -- -- 58
2020-03-16 15:00:00 8.2 7 Sudoeste 18 Oeste 0 -- -- 63
2020-03-16 14:00:00 7.4 8 Sudoeste 29 Sudoeste 0 -- -- 69
2020-03-16 13:00:00 7.3 8 Sudoeste 21 Sudoeste 0 -- -- 71
2020-03-16 12:00:00 4.9 8 Sudoeste 23 Oeste 0 -- -- 82
2020-03-16 11:00:00 3.7 10 Sudoeste 31 Oeste 0 -- -- 86
2020-03-16 10:00:00 3.3 13 Sudoeste 28 Sudoeste 0 -- -- 93
2020-03-16 09:00:00 3.7 8 Sur -- -- 0 -- -- 96
2020-03-16 08:00:00 -- 9 Sur -- -- 0 -- -- --
2020-03-16 07:00:00 4.7 12 Oeste 36 Noroeste 0 -- -- 93
2020-03-16 06:00:00 7.3 13 Oeste 27 Oeste 0 -- -- 93
2020-03-16 05:00:00 8.5 6 Oeste 36 Sudoeste 0 -- -- 96
2020-03-16 04:00:00 10 6 Sur 26 Sudeste 0 -- -- 97
2020-03-16 03:00:00 10.1 10 Sur 21 Sudeste 0 -- -- 93
2020-03-16 02:00:00 10.1 9 Sudeste 19 Sudeste 0 -- -- 89
2020-03-16 01:00:00 10.8 3 Sudoeste 6 Sudoeste 0 -- -- 84
2020-03-16 00:00:00 11.1 3 Sudoeste 17 Sudoeste 0 -- -- 83
2020-03-15 23:00:00 11.7 0 Calma 9 Sur 0 -- -- 81
2020-03-15 22:00:00 12.3 0 Calma 28 Sudeste 0 -- -- 75
2020-03-15 21:00:00 12.4 13 Sudeste 26 Este 0 -- -- 72
2020-03-15 20:00:00 13.2 9 Este 26 Este 0 -- -- 67
2020-03-15 19:00:00 14.4 5 Nordeste 26 Norte 0 -- -- 58
2020-03-15 18:00:00 16.9 14 Norte 32 Oeste 0 -- -- 52
2020-03-15 17:00:00 20.8 12 Oeste 28 Oeste 0 -- -- 45
2020-03-15 16:00:00 19.5 8 Sur 19 Sur 0 -- -- 54
2020-03-15 15:00:00 19 10 Sudeste 23 Sudeste 0 -- -- 53
2020-03-15 14:00:00 18.3 9 Sur 17 Sur 0 -- -- 59
2020-03-15 13:00:00 17.4 8 Sur 22 Sudeste 0 -- -- 62
2020-03-15 12:00:00 15.6 11 Sudeste 29 Este 0 -- -- 71
2020-03-15 11:00:00 12.9 15 Sudeste 28 Sudeste 0 -- -- 82
2020-03-15 10:00:00 10.5 15 Sudeste 31 Sudeste 0 -- -- 95
2020-03-15 09:00:00 8.8 15 Sudeste 32 Sudeste 0 -- -- 99
2020-03-15 08:00:00 8.3 17 Sudeste 33 Sudeste 0 -- -- 98
2020-03-15 07:00:00 -- -- -- -- -- 0 -- -- --
2020-03-15 06:00:00 -- -- -- -- -- 0 -- -- --
2020-03-15 05:00:00 -- 18 Sudeste -- -- 0 -- -- --
2020-03-15 04:00:00 -- 15 Sudeste -- -- 0 -- -- --
2020-03-15 03:00:00 -- 18 Este 29 Este 0 -- -- --
2020-03-15 02:00:00 11.6 15 Este 28 Este 0 -- -- 81
2020-03-15 01:00:00 12.4 15 Sudeste 25 Este 0 -- -- 75
2020-03-15 00:00:00 13.2 12 Este 21 Este 0 -- -- 70
2020-03-14 23:00:00 14.8 7 Sudeste 15 Sudeste 0 -- -- 64
2020-03-14 22:00:00 15.6 6 Este 11 Este 0 -- -- 57
2020-03-14 21:00:00 14.8 6 Nordeste 11 Nordeste 0 -- -- 59
2020-03-14 20:00:00 17.1 5 Nordeste 9 Nordeste 0 -- -- 53
2020-03-14 19:00:00 20 3 Sudeste 9 Sudoeste 0 -- -- 43
2020-03-14 18:00:00 20.9 4 Sudoeste 13 Sur 0 -- -- 40
2020-03-14 17:00:00 21.9 3 Oeste 13 Oeste 0 -- -- 39
2020-03-14 16:00:00 22 4 Noroeste 12 Oeste 0 -- -- 40
2020-03-14 15:00:00 21.6 4 Oeste 11 Sur 0 -- -- 43
2020-03-14 14:00:00 20.7 5 Sudoeste 16 Sur 0 -- -- 47
2020-03-14 13:00:00 19.3 7 Sur 15 Sur 0 -- -- 51
2020-03-14 12:00:00 18.6 5 Sudoeste 10 Sudoeste 0 -- -- 54
2020-03-14 11:00:00 16.4 3 Sur 13 Sudeste 0 -- -- 58
2020-03-14 10:00:00 13.9 5 Sudeste 12 Sudeste 0 -- -- 65
2020-03-14 09:00:00 10.6 3 Sudeste 11 Norte 0 -- -- 78
2020-03-14 08:00:00 8.4 3 Norte 11 Noroeste 0 -- -- 84
2020-03-14 07:00:00 8.6 0 Calma 6 Sudeste 0 -- -- 84
2020-03-14 06:00:00 9 6 Este 18 Sudeste 0 -- -- 83
2020-03-14 05:00:00 9.1 10 Este 22 Este 0 -- -- 85
2020-03-14 04:00:00 9.4 10 Este 21 Este 0 -- -- 85
2020-03-14 03:00:00 10 11 Este 24 Este 0 -- -- 82
2020-03-14 02:00:00 10.8 13 Este 24 Este 0 -- -- 78
2020-03-14 01:00:00 11.3 14 Este 30 Este 0 -- -- 76
2020-03-14 00:00:00 11.6 16 Este 33 Sudeste 0 -- -- 76
2020-03-13 23:00:00 12.3 17 Este 31 Sudeste 0 -- -- 73
2020-03-13 22:00:00 13.4 17 Este 32 Este 0 -- -- 70
2020-03-13 21:00:00 14.9 15 Este 33 Sudeste 0 -- -- 63
2020-03-13 20:00:00 16.2 16 Este 28 Sudeste 0 -- -- 59
2020-03-13 19:00:00 18.5 14 Este 27 Sudeste 0 -- -- 51
2020-03-13 18:00:00 20.6 11 Sudeste 26 Sudeste 0 -- -- 44
2020-03-13 17:00:00 21.3 12 Sudeste 23 Sudeste 0 -- -- 41
2020-03-13 16:00:00 21.2 12 Sur 21 Sur 0 -- -- 40
2020-03-13 15:00:00 20.7 10 Sur 23 Sudeste 0 -- -- 40
2020-03-13 14:00:00 20.2 10 Sudeste 25 Sur 0 -- -- 43
2020-03-13 13:00:00 19.6 12 Sudeste 25 Sudeste 0 -- -- 48
2020-03-13 12:00:00 18.3 16 Sudeste 29 Sudeste 0 -- -- 51
2020-03-13 11:00:00 17.4 15 Sudeste 27 Sudeste 0 -- -- 55
2020-03-13 10:00:00 16.1 10 Sudeste 19 Sudeste 0 -- -- 58
2020-03-13 09:00:00 14.2 6 Sudeste 12 Sudeste 0 -- -- 63
2020-03-13 08:00:00 11.1 2 Este 5 Este 0 -- -- 70
2020-03-13 07:00:00 11.8 0 Calma 20 Este 0 -- -- 66
2020-03-13 06:00:00 12.8 2 Sur 6 Sur 0 -- -- 61
2020-03-13 05:00:00 12.7 3 Sudeste 8 Sur 0 -- -- 64
2020-03-13 04:00:00 13.5 3 Sudeste 6 Sudeste 0 -- -- 62
2020-03-13 03:00:00 14.6 2 Sudeste 58 Sudeste 0 -- -- 60
2020-03-13 02:00:00 14.7 3 Sudeste 8 Sudeste 0 -- -- 59
2020-03-13 01:00:00 14.7 3 Sudeste 7 Este 0 -- -- 60
2020-03-13 00:00:00 15 4 Nordeste 11 Este 0 -- -- 59
2020-03-12 23:00:00 16 6 Nordeste 11 Nordeste 0 -- -- 55
2020-03-12 22:00:00 17.6 5 Nordeste 9 Nordeste 0 -- -- 50
2020-03-12 21:00:00 18.4 3 Este 10 Nordeste 0 -- -- 46
2020-03-12 20:00:00 19.7 6 Nordeste 9 Nordeste 0 -- -- 46
2020-03-12 19:00:00 24 0 Calma 41 Oeste 0 -- -- 35
2020-03-12 18:00:00 25.7 5 Oeste 10 Oeste 0 -- -- 30
2020-03-12 17:00:00 26.3 5 Sudeste 13 Sudeste 0 -- -- 29
2020-03-12 16:00:00 26.7 4 Sur 11 Oeste 0 -- -- 29
2020-03-12 15:00:00 26.6 5 Sur 15 Sudoeste 0 -- -- 29
2020-03-12 14:00:00 26.3 6 Sur 14 Sur 0 -- -- 31
2020-03-12 13:00:00 24.8 7 Sur 14 Sur 0 -- -- 36
2020-03-12 12:00:00 23.3 7 Sudeste 17 Sudeste 0 -- -- 39
2020-03-12 11:00:00 20.5 10 Sudeste 18 Sudeste 0 -- -- 46
2020-03-12 10:00:00 18 5 Sudeste 20 Sudeste 0 -- -- 52
2020-03-12 09:00:00 13.7 3 Oeste 14 Este 0 -- -- 64
2020-03-12 08:00:00 11.4 2 Oeste 13 Este 0 -- -- 67
2020-03-12 07:00:00 11.3 3 Nordeste 14 Nordeste 0 -- -- 68
2020-03-12 06:00:00 11.8 9 Nordeste 15 Nordeste 0 -- -- 66
2020-03-12 05:00:00 11.1 2 Norte 13 Nordeste 0 -- -- 68
2020-03-12 04:00:00 11.5 8 Nordeste 12 Nordeste 0 -- -- 66
2020-03-12 03:00:00 11.7 8 Nordeste 12 Nordeste 0 -- -- 65
2020-03-12 02:00:00 12.5 2 Norte 10 Sudeste 0 -- -- 63
2020-03-12 01:00:00 14.1 3 Este 9 Nordeste 0 -- -- 55
2020-03-12 00:00:00 14.3 4 Nordeste 10 Nordeste 0 -- -- 56
2020-03-11 23:00:00 15 3 Nordeste 13 Nordeste 0 -- -- 55
2020-03-11 22:00:00 15.5 9 Nordeste 14 Nordeste 0 -- -- 54
2020-03-11 21:00:00 16.9 6 Nordeste 12 Nordeste 0 -- -- 52
2020-03-11 20:00:00 19.5 6 Nordeste 10 Nordeste 0 -- -- 48
2020-03-11 19:00:00 24.1 0 Calma 6 Norte 0 -- -- 37
2020-03-11 18:00:00 25.6 4 Noroeste 12 Noroeste 0 -- -- 30
2020-03-11 17:00:00 26.6 5 Noroeste 12 Oeste 0 -- -- 28
2020-03-11 16:00:00 26.9 4 Oeste 12 Sudoeste 0 -- -- 29
2020-03-11 15:00:00 26.5 6 Noroeste 13 Noroeste 0 -- -- 32
2020-03-11 14:00:00 25.4 6 Oeste 12 Oeste 0 -- -- 37
2020-03-11 13:00:00 23.5 4 Oeste 9 Oeste 0 -- -- 42
2020-03-11 12:00:00 21.3 3 Noroeste 7 Oeste 0 -- -- 47
2020-03-11 11:00:00 18.3 3 Noroeste 6 Oeste 0 -- -- 56
2020-03-11 10:00:00 15 0 Calma 3 Sudoeste 0 -- -- 61
2020-03-11 09:00:00 10.1 2 Nordeste 6 Este 0 -- -- 79
2020-03-11 08:00:00 6.7 3 Este 64 Nordeste 0 -- -- 85
2020-03-11 07:00:00 6.9 6 Nordeste 8 Nordeste 0 -- -- 84
2020-03-11 06:00:00 7.5 5 Nordeste 9 Nordeste 0 -- -- 82
2020-03-11 05:00:00 8 6 Nordeste 10 Nordeste 0 -- -- 79
2020-03-11 04:00:00 8.7 0 Calma 9 Nordeste 0 -- -- 75
2020-03-11 03:00:00 8.5 0 Calma 9 Nordeste 0 -- -- 73
2020-03-11 02:00:00 9.3 3 Este 10 Nordeste 0 -- -- 70
2020-03-11 01:00:00 9.4 7 Nordeste 10 Nordeste 0 -- -- 70
2020-03-11 00:00:00 10.4 6 Nordeste 10 Nordeste 0 -- -- 67
2020-03-10 23:00:00 11.6 0 Calma 9 Sudoeste 0 -- -- 62
2020-03-10 22:00:00 13.3 5 Nordeste 12 Nordeste 0 -- -- 57
2020-03-10 21:00:00 15.4 4 Nordeste 8 Norte 0 -- -- 50
2020-03-10 20:00:00 18 4 Norte 10 Noroeste 0 -- -- 42
2020-03-10 19:00:00 20.2 7 Noroeste 17 Noroeste 0 -- -- 39
2020-03-10 18:00:00 21.8 8 Noroeste 19 Noroeste 0 -- -- 35
2020-03-10 17:00:00 22.1 12 Noroeste 21 Noroeste 0 -- -- 33
2020-03-10 16:00:00 22 9 Noroeste 19 Noroeste 0 -- -- 34
2020-03-10 15:00:00 22.1 10 Noroeste 19 Noroeste 0 -- -- 34
2020-03-10 14:00:00 20.5 10 Noroeste 19 Noroeste 0 -- -- 36
2020-03-10 13:00:00 19.2 7 Noroeste 16 Noroeste 0 -- -- 38
2020-03-10 12:00:00 15.8 3 Noroeste 10 Noroeste 0 -- -- 44
2020-03-10 11:00:00 12.9 3 Noroeste 8 Norte 0 -- -- 53
2020-03-10 10:00:00 9.9 2 Sudoeste 9 Sudoeste 0 -- -- 59
2020-03-10 09:00:00 6.8 0 Calma 4 Sudoeste 0 -- -- 72
2020-03-10 08:00:00 3.3 0 Calma 5 Sur 0 -- -- 78
2020-03-10 07:00:00 4 2 Noroeste 8 Nordeste 0 -- -- 76
2020-03-10 06:00:00 3.3 5 Nordeste 10 Nordeste 0 -- -- 77
2020-03-10 05:00:00 3.7 3 Nordeste 8 Nordeste 0 -- -- 76
2020-03-10 04:00:00 4.4 0 Calma 10 Nordeste 0 -- -- 73
2020-03-10 03:00:00 5.2 5 Nordeste 9 Nordeste 0 -- -- 70
2020-03-10 02:00:00 5.9 0 Calma 5 Este 0 -- -- 68
2020-03-10 01:00:00 6.8 5 Nordeste 9 Nordeste 0 -- -- 64
2020-03-10 00:00:00 8.5 0 Calma 7 Nordeste 0 -- -- 57
2020-03-09 23:00:00 9.3 4 Norte 11 Norte 0 -- -- 55
2020-03-09 22:00:00 9.9 6 Nordeste 15 Noroeste 0 -- -- 52
2020-03-09 21:00:00 11.2 7 Norte 17 Nordeste 0 -- -- 47
2020-03-09 20:00:00 12.6 7 Noroeste 19 Noroeste 0 -- -- 46
2020-03-09 19:00:00 14.4 11 Noroeste 22 Noroeste 0 -- -- 43
2020-03-09 18:00:00 15.7 10 Noroeste 26 Oeste 0 -- -- 41
2020-03-09 17:00:00 16 11 Noroeste 34 Noroeste 0 -- -- 41
2020-03-09 16:00:00 16.8 10 Noroeste 31 Noroeste 0 -- -- 34
2020-03-09 15:00:00 16.5 15 Noroeste 27 Noroeste 0 -- -- 37
2020-03-09 14:00:00 15.7 9 Noroeste 23 Oeste 0 -- -- 47
2020-03-09 13:00:00 14.7 6 Noroeste 23 Norte 0 -- -- 50
2020-03-09 12:00:00 13 9 Noroeste 27 Noroeste 0 -- -- 56
2020-03-09 11:00:00 11.5 8 Noroeste 18 Noroeste 0 -- -- 61
2020-03-09 10:00:00 7.9 2 Sur 5 Sur 0 -- -- 77
2020-03-09 09:00:00 5 0 Calma 3 Sudoeste 0 -- -- 86
2020-03-09 08:00:00 3.1 2 Sur 5 Nordeste 0 -- -- 90
2020-03-09 07:00:00 3.2 0 Calma 5 Nordeste 0 -- -- 89
2020-03-09 06:00:00 3.3 0 Calma 6 Nordeste 0 -- -- 88
2020-03-09 05:00:00 3.4 4 Nordeste 7 Nordeste 0 -- -- 87
2020-03-09 04:00:00 5.9 0 Calma 4 Nordeste 0 -- -- 82
2020-03-09 03:00:00 6.9 2 Norte 7 Norte 0 -- -- 82
2020-03-09 02:00:00 7.6 2 Oeste 18 Noroeste 0 -- -- 78
2020-03-09 01:00:00 8.5 2 Noroeste 14 Noroeste 0 -- -- 72
2020-03-09 00:00:00 9.8 5 Noroeste 23 Noroeste 0 -- -- 64
2020-03-08 23:00:00 11.2 7 Noroeste 21 Noroeste 0 -- -- 56
2020-03-08 22:00:00 11.9 0 Calma 15 Noroeste 0 -- -- 51
2020-03-08 21:00:00 12.7 6 Noroeste 16 Noroeste 0 -- -- 45
2020-03-08 20:00:00 13.5 4 Noroeste 16 Noroeste 0 -- -- 46
2020-03-08 19:00:00 14.8 7 Noroeste 24 Noroeste 0 -- -- 44
2020-03-08 18:00:00 15.9 12 Noroeste 27 Oeste 0 -- -- 38
2020-03-08 17:00:00 17.3 12 Noroeste 26 Noroeste 0 -- -- 33
2020-03-08 16:00:00 18.2 12 Noroeste 26 Noroeste 0 -- -- 31
2020-03-08 15:00:00 17.8 9 Oeste 23 Sudoeste 0 -- -- 35
2020-03-08 14:00:00 16.6 10 Oeste 22 Oeste 0 -- -- 40
2020-03-08 13:00:00 15.5 8 Oeste 23 Noroeste 0 -- -- 47
2020-03-08 12:00:00 13.6 5 Oeste 13 Oeste 0 -- -- 56
2020-03-08 11:00:00 11.1 3 Oeste 9 Sudoeste 0 -- -- 64
2020-03-08 10:00:00 7.5 2 Oeste 4 Noroeste 0 -- -- 75
2020-03-08 09:00:00 2.5 0 Calma 8 Nordeste 0 -- -- 84
2020-03-08 08:00:00 0.4 6 Nordeste 11 Nordeste 0 -- -- 91
2020-03-08 07:00:00 0.1 8 Nordeste 11 Nordeste 0 -- -- 90
2020-03-08 06:00:00 0.6 6 Nordeste 9 Nordeste 0 -- -- 89
2020-03-08 05:00:00 0.9 4 Nordeste 11 Nordeste 0 -- -- 88
2020-03-08 04:00:00 1.8 3 Este 10 Nordeste 0 -- -- 85
2020-03-08 03:00:00 2.5 5 Nordeste 9 Nordeste 0 -- -- 84
2020-03-08 02:00:00 3.7 2 Este 9 Nordeste 0 -- -- 80
2020-03-08 01:00:00 4.5 6 Nordeste 9 Nordeste 0 -- -- 79
2020-03-08 00:00:00 5.5 4 Nordeste 8 Nordeste 0 -- -- 74
2020-03-07 23:00:00 7.5 2 Noroeste 10 Nordeste 0 -- -- 69
2020-03-07 22:00:00 7.6 4 Nordeste 12 Norte 0 -- -- 69
2020-03-07 21:00:00 9.4 5 Norte 22 Norte 0 -- -- 62
2020-03-07 20:00:00 11.5 9 Noroeste 19 Norte 0 -- -- 55
2020-03-07 19:00:00 13.6 10 Norte 25 Norte 0 -- -- 48
2020-03-07 18:00:00 14.7 12 Noroeste 29 Noroeste 0 -- -- 44
2020-03-07 17:00:00 14.5 9 Noroeste 30 Noroeste 0 -- -- 45
2020-03-07 16:00:00 14.6 14 Norte 29 Norte 0 -- -- 45
2020-03-07 15:00:00 13.8 10 Norte 28 Norte 0 -- -- 47
2020-03-07 14:00:00 12.5 10 Norte 28 Noroeste 0 -- -- 48
2020-03-07 13:00:00 11.6 10 Noroeste 27 Noroeste 0 -- -- 50
2020-03-07 12:00:00 9.8 12 Noroeste 27 Noroeste 0 -- -- 52
2020-03-07 11:00:00 8 7 Noroeste 21 Noroeste 0 -- -- 53
2020-03-07 10:00:00 6.1 9 Noroeste 18 Noroeste 0 -- -- 61
2020-03-07 09:00:00 2.6 3 Norte 11 Norte 0 -- -- 71
2020-03-07 08:00:00 0.1 3 Nordeste 7 Norte 0 -- -- 80
2020-03-07 07:00:00 -0.3 0 Calma 6 Nordeste 0 -- -- 81
2020-03-07 06:00:00 0 0 Calma 6 Nordeste 0 -- -- 80
2020-03-07 05:00:00 0.1 0 Calma 8 Nordeste 0 -- -- 78
2020-03-07 04:00:00 1.1 3 Nordeste 7 Nordeste 0 -- -- 74
2020-03-07 03:00:00 1.5 2 Sur 10 Sur 0 -- -- 72
2020-03-07 02:00:00 3.6 4 Norte 10 Norte 0 -- -- 62
2020-03-07 01:00:00 3.2 0 Calma 12 Norte 0 -- -- 63
2020-03-07 00:00:00 3.6 3 Norte 6 Norte 0 -- -- 60
2020-03-06 23:00:00 4.2 2 Sur 14 Norte 0 -- -- 60
2020-03-06 22:00:00 6 4 Noroeste 10 Noroeste 0 -- -- 52
2020-03-06 21:00:00 6.9 3 Noroeste 14 Noroeste 0 -- -- 49
2020-03-06 20:00:00 7.6 0 Calma 22 Norte 0 -- -- 49
2020-03-06 19:00:00 9.1 9 Norte 29 Noroeste 0 -- -- 42
2020-03-06 18:00:00 10 20 Noroeste 47 Noroeste 0 -- -- 41
2020-03-06 17:00:00 11 22 Noroeste 47 Noroeste 0 -- -- 40
2020-03-06 16:00:00 11.1 21 Noroeste 52 Noroeste 0 -- -- 41
2020-03-06 15:00:00 10.4 26 Noroeste 59 Noroeste 0 -- -- 44
2020-03-06 14:00:00 10.5 24 Noroeste 55 Noroeste 0 -- -- 42
2020-03-06 13:00:00 10.5 31 Noroeste 55 Noroeste 0 -- -- 46
2020-03-06 12:00:00 9.2 22 Noroeste 46 Noroeste 0 -- -- 59
2020-03-06 11:00:00 8.2 15 Noroeste 40 Noroeste 0 -- -- 76
2020-03-06 10:00:00 5.9 10 Oeste 28 Oeste 0 -- -- 90
2020-03-06 09:00:00 4.2 5 Oeste 14 Oeste 0 -- -- 87
2020-03-06 08:00:00 3.1 3 Oeste 12 Oeste 0 -- -- 88
2020-03-06 07:00:00 3.2 5 Oeste 26 Oeste 0 -- -- 85
2020-03-06 06:00:00 3.3 6 Noroeste 17 Noroeste 0 -- -- 86
2020-03-06 05:00:00 3.5 3 Oeste 11 Oeste 0 -- -- 87
2020-03-06 04:00:00 3.9 0 Calma 8 Oeste 0 -- -- 87
2020-03-06 03:00:00 5 3 Oeste 15 Oeste 0 -- -- 86
2020-03-06 02:00:00 5.5 5 Oeste 18 Oeste 0 -- -- 84
2020-03-06 01:00:00 5.8 3 Oeste 14 Noroeste 0 -- -- 82
2020-03-06 00:00:00 6.5 6 Oeste 19 Oeste 0 -- -- 78
2020-03-05 23:00:00 8 8 Oeste 22 Oeste 0 -- -- 73
2020-03-05 22:00:00 8.1 6 Oeste 15 Oeste 0 -- -- 72
2020-03-05 21:00:00 10.1 3 Oeste 10 Oeste 0 -- -- 64
2020-03-05 20:00:00 11.6 5 Oeste 26 Oeste 0 -- -- 59
2020-03-05 19:00:00 12.8 12 Noroeste 39 Oeste 0 -- -- 54
2020-03-05 18:00:00 14 17 Noroeste 38 Noroeste 0 -- -- 52
2020-03-05 17:00:00 14.5 17 Oeste 39 Sudoeste 0 -- -- 51
2020-03-05 16:00:00 14.6 18 Noroeste 41 Noroeste 0 -- -- 47
2020-03-05 15:00:00 11.9 13 Oeste 36 Oeste 0 -- -- 87
2020-03-05 14:00:00 11.9 18 Oeste 39 Sudoeste 0 -- -- 85
2020-03-05 13:00:00 11.5 20 Oeste 48 Sudoeste 0 -- -- 87
2020-03-05 12:00:00 11.5 19 Oeste 44 Sudoeste 0 -- -- 84
2020-03-05 11:00:00 11.3 17 Oeste 39 Sudoeste 0 -- -- 85
2020-03-05 10:00:00 11.5 15 Oeste 35 Sudoeste 0 -- -- 88
2020-03-05 09:00:00 9.2 10 Oeste 25 Sudoeste 0 -- -- 97
2020-03-05 08:00:00 8 4 Oeste 11 Sudoeste 0 -- -- 97
2020-03-05 07:00:00 8 4 Sudoeste 11 Oeste 0 -- -- 95
2020-03-05 06:00:00 7.8 3 Sudoeste 8 Oeste 0 -- -- 97
2020-03-05 05:00:00 7.4 0 Calma 5 Sudoeste 0 -- -- 96
2020-03-05 04:00:00 7.5 0 Calma 5 Oeste 0 -- -- 95
2020-03-05 03:00:00 7.9 2 Sudeste 6 Sur 0 -- -- 93
2020-03-05 02:00:00 9 0 Calma 10 Oeste 0 -- -- 90
2020-03-05 01:00:00 9.9 4 Oeste 12 Oeste 0 -- -- 89
2020-03-05 00:00:00 9.9 0 Calma 5 Oeste 0 -- -- 85
2020-03-04 23:00:00 10.1 0 Calma 9 Oeste 0 -- -- 84
2020-03-04 22:00:00 10.5 4 Oeste 12 Oeste 0 -- -- 83
2020-03-04 21:00:00 11.3 4 Oeste 13 Oeste 0 -- -- 77
2020-03-04 20:00:00 12.3 5 Sudoeste 14 Sudoeste 0 -- -- 73
2020-03-04 19:00:00 14.2 7 Oeste 16 Noroeste 0 -- -- 61
2020-03-04 18:00:00 14.8 6 Oeste 30 Noroeste 0 -- -- 60
2020-03-04 17:00:00 15.4 10 Oeste 29 Noroeste 0 -- -- 59
2020-03-04 16:00:00 15.4 13 Noroeste 35 Noroeste 0 -- -- 59
2020-03-04 15:00:00 15.7 13 Oeste 28 Noroeste 0 -- -- 58
2020-03-04 14:00:00 15.2 9 Oeste 28 Oeste 0 -- -- 65
2020-03-04 13:00:00 14.3 12 Oeste 28 Oeste 0 -- -- 69
2020-03-04 12:00:00 13.2 12 Oeste 29 Noroeste 0 -- -- 78
2020-03-04 11:00:00 12.7 9 Oeste 22 Noroeste 0 -- -- 86
2020-03-04 10:00:00 11.3 6 Oeste 14 Noroeste 0 -- -- 93
2020-03-04 09:00:00 10.8 5 Oeste 13 Oeste 0 -- -- 95
2020-03-04 08:00:00 10.4 5 Oeste 17 Oeste 0 -- -- 95
2020-03-04 07:00:00 10.5 6 Oeste 15 Oeste 0 -- -- 94
2020-03-04 06:00:00 10.7 4 Oeste 14 Oeste 0 -- -- 94
2020-03-04 05:00:00 10.7 4 Oeste 17 Oeste 0 -- -- 94
2020-03-04 04:00:00 10.5 5 Oeste 16 Noroeste 0 -- -- 95
2020-03-04 03:00:00 10.7 7 Oeste 18 Oeste 0 -- -- 94
2020-03-04 02:00:00 10.9 8 Oeste 19 Sudoeste 0 -- -- 95
2020-03-04 01:00:00 11.1 7 Oeste 24 Sudoeste 0 -- -- 95
2020-03-04 00:00:00 11.1 12 Oeste 22 Oeste 0 -- -- 94
2020-03-03 23:00:00 11.4 10 Oeste 26 Oeste 0 -- -- 91
2020-03-03 22:00:00 11.4 9 Oeste 27 Oeste 0 -- -- 89
2020-03-03 21:00:00 11.5 10 Oeste 31 Oeste 0 -- -- 87
2020-03-03 20:00:00 11.7 12 Oeste 34 Oeste 0 -- -- 84
2020-03-03 19:00:00 12 15 Oeste 36 Oeste 0 -- -- 81
2020-03-03 18:00:00 12.7 14 Oeste 37 Sudoeste 0 -- -- 78
2020-03-03 17:00:00 12.4 18 Oeste 37 Oeste 0 -- -- 77
2020-03-03 16:00:00 12.4 19 Oeste 42 Oeste 0 -- -- 76
2020-03-03 15:00:00 11.5 12 Oeste 35 Noroeste 0 -- -- 76
2020-03-03 14:00:00 11.3 14 Oeste 35 Oeste 0 -- -- 75
2020-03-03 13:00:00 9.7 11 Oeste 34 Oeste 0 -- -- 79
2020-03-03 12:00:00 8.6 14 Oeste 34 Oeste 0 -- -- 81
2020-03-03 11:00:00 6.9 12 Oeste 27 Oeste 0 -- -- 89
2020-03-03 10:00:00 5.6 12 Oeste 27 Oeste 0 -- -- 92
2020-03-03 09:00:00 4.6 6 Oeste 17 Oeste 0 -- -- 92
2020-03-03 08:00:00 4 8 Oeste 17 Oeste 0 -- -- 94
2020-03-03 07:00:00 3 2 Sudoeste 10 Oeste 0 -- -- 91
2020-03-03 06:00:00 2.7 4 Oeste 14 Noroeste 0 -- -- 92
2020-03-03 05:00:00 2 0 Calma 12 Oeste 0 -- -- 92
2020-03-03 04:00:00 2 5 Oeste 12 Oeste 0 -- -- 92
2020-03-03 03:00:00 1.6 2 Oeste 6 Oeste 0 -- -- 87
2020-03-03 02:00:00 1.9 0 Calma 6 Oeste 0 -- -- 84
2020-03-03 01:00:00 2.4 0 Calma 8 Oeste 0 -- -- 82
2020-03-03 00:00:00 3.3 2 Noroeste 11 Noroeste 0 -- -- 76
2020-03-02 23:00:00 4.3 4 Oeste 15 Noroeste 0 -- -- 71
2020-03-02 22:00:00 4.8 7 Noroeste 20 Noroeste 0 -- -- 68
2020-03-02 21:00:00 5.8 14 Noroeste 26 Noroeste 0 -- -- 63
2020-03-02 20:00:00 6.6 15 Noroeste 37 Noroeste 0 -- -- 59
2020-03-02 19:00:00 7.4 18 Noroeste 50 Noroeste 0 -- -- 59
2020-03-02 18:00:00 9 23 Noroeste 58 Noroeste 0 -- -- 58
2020-03-02 17:00:00 8.2 25 Noroeste 61 Noroeste 0 -- -- 69
2020-03-02 16:00:00 10 22 Noroeste 71 Noroeste 0 -- -- 75
2020-03-02 15:00:00 8.9 29 Noroeste 60 Noroeste 0 -- -- 82
2020-03-02 14:00:00 13.1 26 Oeste 53 Oeste 0 -- -- 47
2020-03-02 13:00:00 13.4 22 Oeste 51 Oeste 0 -- -- 50
2020-03-02 12:00:00 12.8 24 Oeste 63 Oeste 0 -- -- 57
2020-03-02 11:00:00 11.8 25 Oeste 64 Noroeste 0 -- -- 62
2020-03-02 10:00:00 12.1 22 Oeste 59 Oeste 0 -- -- 73
2020-03-02 09:00:00 10.1 15 Oeste 54 Sudoeste 0 -- -- 97
2020-03-02 08:00:00 10.2 28 Oeste 57 Sudoeste 0 -- -- 94
2020-03-02 07:00:00 10.1 24 Oeste 50 Sudoeste 0 -- -- 94
2020-03-02 06:00:00 9.9 27 Sudoeste 58 Oeste 0 -- -- 95
2020-03-02 05:00:00 9.8 24 Sudoeste 56 Sudoeste 0 -- -- 95
2020-03-02 04:00:00 10.1 27 Oeste 57 Sudoeste 0 -- -- 93
2020-03-02 03:00:00 10.8 24 Oeste 56 Oeste 0 -- -- 91
2020-03-02 02:00:00 10.7 22 Sudoeste 45 Oeste 0 -- -- 96
2020-03-02 01:00:00 10.6 15 Sudoeste 38 Sudoeste 0 -- -- 92
2020-03-02 00:00:00 11.2 19 Sudoeste 43 Sudoeste 0 -- -- 84
2020-03-01 23:00:00 10.9 16 Sudoeste 36 Sudoeste 0 -- -- 84
2020-03-01 22:00:00 10.7 15 Sudoeste 37 Sudoeste 0 -- -- 83
2020-03-01 21:00:00 10.6 12 Sudoeste 35 Sudoeste 0 -- -- 84
2020-03-01 20:00:00 11.3 13 Sudoeste 31 Sudoeste 0 -- -- 84
2020-03-01 19:00:00 12.4 15 Oeste 37 Oeste 0 -- -- 74
2020-03-01 18:00:00 13 21 Oeste 49 Oeste 0 -- -- 71
2020-03-01 17:00:00 14.1 22 Oeste 44 Oeste 0 -- -- 66
2020-03-01 16:00:00 12.6 20 Oeste 49 Sudoeste 0 -- -- 74
2020-03-01 15:00:00 11.8 13 Oeste 39 Oeste 0 -- -- 76
2020-03-01 14:00:00 11.1 14 Oeste 37 Sudoeste 0 -- -- 80
2020-03-01 13:00:00 10.8 18 Oeste 42 Oeste 0 -- -- 82
2020-03-01 12:00:00 10.1 15 Oeste 31 Sudoeste 0 -- -- 86
2020-03-01 11:00:00 9.5 14 Oeste 33 Oeste 0 -- -- 89
2020-03-01 10:00:00 8.9 15 Oeste 33 Sudoeste 0 -- -- 92
2020-03-01 09:00:00 8.2 8 Oeste 19 Sudoeste 0 -- -- 95
2020-03-01 08:00:00 7.9 11 Oeste 24 Oeste 0 -- -- 94
2020-03-01 07:00:00 7.8 11 Oeste 21 Sudoeste 0 -- -- 94
2020-03-01 06:00:00 7.8 8 Oeste 16 Sudoeste 0 -- -- 90
2020-03-01 05:00:00 7.9 6 Oeste 19 Oeste 0 -- -- 89
2020-03-01 04:00:00 8.2 8 Oeste 16 Oeste 0 -- -- 87
2020-03-01 03:00:00 8.3 4 Oeste 14 Oeste 0 -- -- 88
2020-03-01 02:00:00 8.9 5 Oeste 19 Oeste 0 -- -- 89
2020-03-01 01:00:00 8.9 3 Oeste 20 Oeste 0 -- -- 89
2020-03-01 00:00:00 9.7 6 Oeste 27 Sudoeste 0 -- -- 91
2020-02-29 23:00:00 10.2 8 Oeste 32 Oeste 0 -- -- 91
2020-02-29 22:00:00 11.3 15 Oeste 33 Oeste 0 -- -- 86
2020-02-29 21:00:00 11.9 11 Oeste 27 Oeste 0 -- -- 80
2020-02-29 20:00:00 11.9 10 Oeste 28 Oeste 0 -- -- 78
2020-02-29 19:00:00 12.7 15 Oeste 43 Oeste 0 -- -- 73
2020-02-29 18:00:00 13.5 18 Oeste 41 Oeste 0 -- -- 65
2020-02-29 17:00:00 14.1 17 Oeste 38 Oeste 0 -- -- 63
2020-02-29 16:00:00 13.2 12 Oeste 37 Sudoeste 0 -- -- 65
2020-02-29 15:00:00 13.3 14 Oeste 39 Sudoeste 0 -- -- 62
2020-02-29 14:00:00 14 19 Oeste 44 Oeste 0 -- -- 58
2020-02-29 13:00:00 13.9 18 Oeste 41 Sudoeste 0 -- -- 61
2020-02-29 12:00:00 13.2 19 Oeste 42 Oeste 0 -- -- 59
2020-02-29 11:00:00 11.8 16 Sudoeste 33 Oeste 0 -- -- 61
2020-02-29 10:00:00 9.6 12 Oeste 26 Sudoeste 0 -- -- 71
2020-02-29 09:00:00 6.2 8 Sudoeste 18 Sudoeste 0 -- -- 83
2020-02-29 08:00:00 4.6 4 Sudoeste 13 Sudoeste 0 -- -- 81
2020-02-29 07:00:00 5.4 3 Sudoeste 17 Sudoeste 0 -- -- 77
2020-02-29 06:00:00 6 4 Sudoeste 9 Oeste 0 -- -- 74
2020-02-29 05:00:00 6.8 3 Sur 10 Sudoeste 0 -- -- 64
2020-02-29 04:00:00 8 4 Sur 8 Sur 0 -- -- 58
2020-02-29 03:00:00 8.4 0 Calma 10 Sur 0 -- -- 55
2020-02-29 02:00:00 8.6 2 Sudeste 5 Sur 0 -- -- 54
2020-02-29 01:00:00 9.5 5 Sudeste 9 Sudeste 0 -- -- 49
2020-02-29 00:00:00 10.1 2 Sudeste 10 Sudeste 0 -- -- 54
2020-02-28 23:00:00 9.5 4 Sudeste 10 Nordeste 0 -- -- 61
2020-02-28 22:00:00 9 7 Nordeste 11 Nordeste 0 -- -- 63
2020-02-28 21:00:00 10.2 7 Nordeste 10 Nordeste 0 -- -- 60
2020-02-28 20:00:00 13.1 4 Este 7 Nordeste 0 -- -- 52
2020-02-28 19:00:00 16.6 0 Calma 6 Sudoeste 0 -- -- 43
2020-02-28 18:00:00 18 3 Sudoeste 9 Sur 0 -- -- 37
2020-02-28 17:00:00 18.5 6 Sudoeste 11 Sur 0 -- -- 34
2020-02-28 16:00:00 18.4 6 Sudeste 15 Sur 0 -- -- 34
2020-02-28 15:00:00 18.7 7 Sur 14 Sur 0 -- -- 34
2020-02-28 14:00:00 18.4 5 Sur 12 Sur 0 -- -- 35
2020-02-28 13:00:00 17 8 Sudeste 14 Sur 0 -- -- 38
2020-02-28 12:00:00 14.8 0 Calma 5 Oeste 0 -- -- 51
2020-02-28 11:00:00 11.9 3 Sur 5 Sur 0 -- -- 59
2020-02-28 10:00:00 7.9 0 Calma 4 Noroeste 0 -- -- 70
2020-02-28 09:00:00 3.9 0 Calma 3 Sur 0 -- -- 82
2020-02-28 08:00:00 2.3 0 Calma 9 Oeste 0 -- -- 84
2020-02-28 07:00:00 3.6 0 Calma 11 Nordeste 0 -- -- 77
2020-02-28 06:00:00 3.7 6 Nordeste 12 Nordeste 0 -- -- 79
2020-02-28 05:00:00 3.9 3 Sudeste 7 Sur 0 -- -- 81
2020-02-28 04:00:00 5.2 4 Nordeste 10 Nordeste 0 -- -- 77
2020-02-28 03:00:00 6.9 2 Este 8 Sudoeste 0 -- -- 71
2020-02-28 02:00:00 8.2 4 Nordeste 10 Nordeste 0 -- -- 66
2020-02-28 01:00:00 8.9 0 Calma 6 Oeste 0 -- -- 63
2020-02-28 00:00:00 9.7 2 Oeste 10 Noroeste 0 -- -- 59